Aurora, Minnesota
Current Conditions -  °F | °C
As of 12:11 AM on Sunday 26 Oct 2014 (Local Time) from KEVM Reporting Station
Clear Clear  
Wind Chill: 32°   Ceiling: Unl
Heat Index: 32°   Visibility: 10mi
Dew Point: 27°   Wind: 0mph
Humidity: 80%   Direction: NA
Pressure: 29.97"   Gusts: NA
Location:  47.53°N, 92.24°W
Report Text: KEVM 260511Z AUTO 00000KT 10SM CLR 00/M03 A2997 RMK AO2
Loading
Personal Weather Stations






























Interactive Weather Map New forecast layout! Learn more

10-Day Weather Forecast

Advertisements
Track Severe Weather on mobile